Ridgecrest, CA

11:45 AM PST on February 22, 2017 (GMT -0800)
China Lake NAWS | | Change Station
Active Advisory: Wind Advisory

Elev 2283 ft 35.69 °N, 117.69 °W | Updated 49 minutes ago

Clear
Clear
55 °F
Feels Like 55 °F
N
23
Wind Variable Wind from SW
Gusts 30 mph

Today
High -- | Low -- °F
--% Chance of Precip.
Yesterday
High -- | Low -- °F
Precip. -- in
Pressure 29.98 in
Visibility 10.0 miles
Clouds Few 7000 ft
Dew Point 27 °F
Humidity 34%
Rainfall 0.00 in
Snow Depth Not available.
6:29 AM 5:39 PM
Waning Crescent, 15% visible
METAR KNID 221856Z 22020G26KT 10SM FEW070 13/M03 A2998 RMK AO2 PK WND 24026/1851 SLP150 T01281028 $
Pressure 29.98 in
Visibility 10.0 miles
Clouds Few 7000 ft
Dew Point 27 °F
Humidity 34%
Rainfall 0.00 in
Snow Depth Not available.
6:29 AM 5:39 PM
Waning Crescent, 15% visible
METAR KNID 221856Z 22020G26KT 10SM FEW070 13/M03 A2998 RMK AO2 PK WND 24026/1851 SLP150 T01281028 $

Get Your Daily Forecast Email!

Thanks for signing up!

Be on the lookout for a verification email in your inbox.

You'll start receiving the daily forecast at 8 AM.

×

10-Day Weather Forecast

Almanac

Astronomy

Feb. 22, 2017 Rise Set
Actual Time
Civil Twilight
Nautical Twilight
Astronomical Twilight
Moon
Length of Visible Light
Length of Day
Tomorrow will be .
, % of the Moon is Illuminated

Today's Extremes

State Highs State Lows

Community

WunderPhotos

Upload Photos

1,962,540 photos uploaded!

WunderBlog® & News

Nearby

Air Quality

  Air Quality AQ Index Pollutant
Not available.

Snow Depth

Station Depth Elevation

Earthquake Activity

City Distance Mag. Time & Date
Minimum magnitude displayed is 2.5.

Coastal Water Temperatures

Place Temperature

Stations

Nearby Weather Stations

Station Location Temp. Windchill Dew Point Humidity Wind Precip. Elev Updated Type
                   

Watches & Warnings

Wind Advisory
Issued: 4:12 AM PST Feb. 22, 2017 – National Weather Service

... Wind Advisory in effect from 2 PM this afternoon to 1 am PST
Thursday...

The National Weather Service in Hanford has issued a Wind
Advisory... which is in effect from 2 PM this afternoon to 1 am
PST Thursday.

* Winds... west 20 to 30 mph with gusts up to 50 mph.

* Timing... winds increasing this afternoon. Strongest winds
occurring late afternoon into the evening hours then decreasing
during the night.

* Impacts..downed trees and power lines as well as difficulty
driving. Gusty winds will blow around unsecured objects

Precautionary/preparedness actions...

A Wind Advisory means that winds of at least 45 mph are expected.
Winds this strong can make driving difficult, especially for high
profile vehicles. Use extra caution.